CheckWX is a tool to help pilots better visualize weather data.  It is not intended as a substitute for an official pre-flight weather briefing.

07:14:25 UTC

KHYA TAF
Barnstable Municipal-Boardman / Polando Field Airport
Hyannis, Massachusetts, USA
KHYA 200523Z 2006/2106 16006KT P6SM OVC003 FM200800 15005KT 3SM BR OVC003 FM202200 17008KT 1/2SM FG OVC003 FM210000 18008KT 1SM -SHRA BR OVC003

Jun-20@
06:00 UTC

Jun-20 @ 06:00 UTC

Jun-20@
08:00 UTC

Jun-20 @ 08:00 UTC

KHYA 200523Z 2006/2106 16006KT P6SM OVC003
Wind
  • 160° at 6 KTS
Cloud Levels
  • Overcast at 300' AGL

Jun-20@
08:00 UTC

Jun-20 @ 08:00 UTC

Jun-20@
22:00 UTC

Jun-20 @ 22:00 UTC

FM200800 15005KT 3SM BR OVC003

From

From Standard forecast or significant change

Wind
  • 150° at 5 KTS
Conditions
Mist
Cloud Levels
  • Overcast at 300' AGL

Jun-20@
22:00 UTC

Jun-20 @ 22:00 UTC

Jun-21@
00:00 UTC

Jun-21 @ 00:00 UTC

FM202200 17008KT 1/2SM FG OVC003

From

From Standard forecast or significant change

Wind
  • 170° at 8 KTS
Conditions
Fog
Cloud Levels
  • Overcast at 300' AGL

Jun-21@
00:00 UTC

Jun-21 @ 00:00 UTC

Jun-21@
06:00 UTC

Jun-21 @ 06:00 UTC

FM210000 18008KT 1SM -SHRA BR OVC003

From

From Standard forecast or significant change

Wind
  • 180° at 8 KTS
Conditions
Light Rain, Mist
Cloud Levels
  • Overcast at 300' AGL